sensor_id;sensor_type;location;lat;lon;timestamp;pressure;altitude;pressure_sealevel;temperature;humidity
21644;BME280;10983;51.982;9.226;2023-04-26T00:01:29;100014.31;;;2.85;100.00
21644;BME280;10983;51.982;9.226;2023-04-26T00:03:57;100014.31;;;2.85;100.00
21644;BME280;10983;51.982;9.226;2023-04-26T00:06:27;99988.28;;;2.26;100.00
21644;BME280;10983;51.982;9.226;2023-04-26T00:08:54;99992.53;;;2.13;100.00
21644;BME280;10983;51.982;9.226;2023-04-26T00:11:23;99992.53;;;2.13;100.00
21644;BME280;10983;51.982;9.226;2023-04-26T00:13:51;99992.53;;;2.13;100.00
21644;BME280;10983;51.982;9.226;2023-04-26T00:16:18;99992.53;;;2.13;100.00
21644;BME280;10983;51.982;9.226;2023-04-26T00:18:46;99992.53;;;2.13;100.00
21644;BME280;10983;51.982;9.226;2023-04-26T00:21:14;99987.31;;;2.27;100.00
21644;BME280;10983;51.982;9.226;2023-04-26T00:23:43;99987.31;;;2.27;100.00
21644;BME280;10983;51.982;9.226;2023-04-26T00:26:10;99988.75;;;1.78;100.00
21644;BME280;10983;51.982;9.226;2023-04-26T00:28:38;99986.97;;;1.57;100.00
21644;BME280;10983;51.982;9.226;2023-04-26T00:31:05;99976.91;;;1.46;100.00
21644;BME280;10983;51.982;9.226;2023-04-26T00:33:33;99980.19;;;1.25;100.00
21644;BME280;10983;51.982;9.226;2023-04-26T00:36:00;99978.06;;;1.21;100.00
21644;BME280;10983;51.982;9.226;2023-04-26T00:38:30;99973.72;;;1.13;100.00
21644;BME280;10983;51.982;9.226;2023-04-26T00:41:00;99971.44;;;1.55;100.00
21644;BME280;10983;51.982;9.226;2023-04-26T00:43:28;99989.66;;;1.49;100.00
21644;BME280;10983;51.982;9.226;2023-04-26T00:45:55;99980.88;;;1.64;100.00
21644;BME280;10983;51.982;9.226;2023-04-26T00:48:23;99982.47;;;1.51;100.00
21644;BME280;10983;51.982;9.226;2023-04-26T00:50:50;99980.94;;;1.34;100.00
21644;BME280;10983;51.982;9.226;2023-04-26T00:53:19;99973.06;;;1.11;100.00
21644;BME280;10983;51.982;9.226;2023-04-26T00:55:47;99973.00;;;0.89;100.00
21644;BME280;10983;51.982;9.226;2023-04-26T00:58:18;99976.28;;;0.91;100.00
21644;BME280;10983;51.982;9.226;2023-04-26T01:00:45;99971.50;;;1.03;100.00
21644;BME280;10983;51.982;9.226;2023-04-26T01:03:13;99969.88;;;1.02;100.00
21644;BME280;10983;51.982;9.226;2023-04-26T01:05:40;99969.88;;;1.02;100.00
21644;BME280;10983;51.982;9.226;2023-04-26T01:08:08;99950.88;;;0.77;100.00
21644;BME280;10983;51.982;9.226;2023-04-26T01:10:36;99969.81;;;0.79;100.00
21644;BME280;10983;51.982;9.226;2023-04-26T01:13:05;99978.16;;;0.83;100.00
21644;BME280;10983;51.982;9.226;2023-04-26T01:15:34;99976.81;;;0.87;100.00
21644;BME280;10983;51.982;9.226;2023-04-26T01:18:02;99978.94;;;0.83;100.00
21644;BME280;10983;51.982;9.226;2023-04-26T01:20:30;99982.00;;;0.95;100.00
21644;BME280;10983;51.982;9.226;2023-04-26T01:22:58;99984.19;;;0.83;100.00
21644;BME280;10983;51.982;9.226;2023-04-26T01:25:27;99989.91;;;0.87;100.00
21644;BME280;10983;51.982;9.226;2023-04-26T01:27:54;99988.69;;;0.67;100.00
21644;BME280;10983;51.982;9.226;2023-04-26T01:30:22;99981.50;;;0.61;100.00
21644;BME280;10983;51.982;9.226;2023-04-26T01:32:49;99985.63;;;0.48;100.00
21644;BME280;10983;51.982;9.226;2023-04-26T01:35:17;99976.50;;;0.44;100.00
21644;BME280;10983;51.982;9.226;2023-04-26T01:37:44;99983.78;;;0.18;100.00
21644;BME280;10983;51.982;9.226;2023-04-26T01:40:13;99971.16;;;0.21;100.00
21644;BME280;10983;51.982;9.226;2023-04-26T01:42:40;99989.16;;;0.24;100.00
21644;BME280;10983;51.982;9.226;2023-04-26T01:45:09;99985.84;;;0.30;100.00
21644;BME280;10983;51.982;9.226;2023-04-26T01:47:36;99986.53;;;0.24;100.00
21644;BME280;10983;51.982;9.226;2023-04-26T01:50:05;99984.59;;;0.18;100.00
21644;BME280;10983;51.982;9.226;2023-04-26T01:52:33;99976.59;;;0.04;100.00
21644;BME280;10983;51.982;9.226;2023-04-26T01:55:00;99979.53;;;0.09;100.00
21644;BME280;10983;51.982;9.226;2023-04-26T01:57:29;99979.19;;;0.12;100.00
21644;BME280;10983;51.982;9.226;2023-04-26T01:59:57;99983.31;;;0.06;100.00
21644;BME280;10983;51.982;9.226;2023-04-26T02:02:24;99985.25;;;0.12;100.00
21644;BME280;10983;51.982;9.226;2023-04-26T02:04:52;99988.66;;;0.21;100.00
21644;BME280;10983;51.982;9.226;2023-04-26T02:07:19;99866.53;;;0.07;100.00
21644;BME280;10983;51.982;9.226;2023-04-26T02:09:46;99896.13;;;-0.01;100.00
21644;BME280;10983;51.982;9.226;2023-04-26T02:12:14;99911.19;;;-0.18;100.00
21644;BME280;10983;51.982;9.226;2023-04-26T02:14:43;99929.97;;;-0.23;100.00
21644;BME280;10983;51.982;9.226;2023-04-26T02:17:10;99934.88;;;-0.12;100.00
21644;BME280;10983;51.982;9.226;2023-04-26T02:19:39;99939.56;;;-0.07;100.00
21644;BME280;10983;51.982;9.226;2023-04-26T02:22:06;99940.28;;;-0.29;100.00
21644;BME280;10983;51.982;9.226;2023-04-26T02:24:34;99942.22;;;-0.39;100.00
21644;BME280;10983;51.982;9.226;2023-04-26T02:27:01;99952.84;;;-0.41;100.00
21644;BME280;10983;51.982;9.226;2023-04-26T02:29:30;99943.88;;;-0.30;100.00
21644;BME280;10983;51.982;9.226;2023-04-26T02:32:11;99951.00;;;-0.16;100.00
21644;BME280;10983;51.982;9.226;2023-04-26T02:34:38;99951.69;;;-0.22;100.00
21644;BME280;10983;51.982;9.226;2023-04-26T02:37:06;99969.81;;;-0.29;100.00
21644;BME280;10983;51.982;9.226;2023-04-26T02:39:34;99970.13;;;-0.24;100.00
21644;BME280;10983;51.982;9.226;2023-04-26T02:42:01;99978.28;;;-0.27;100.00
21644;BME280;10983;51.982;9.226;2023-04-26T02:44:29;99972.09;;;-0.34;100.00
21644;BME280;10983;51.982;9.226;2023-04-26T02:46:56;99974.41;;;-0.47;100.00
21644;BME280;10983;51.982;9.226;2023-04-26T02:49:25;99985.13;;;-0.57;100.00
21644;BME280;10983;51.982;9.226;2023-04-26T02:51:53;99983.03;;;-0.54;100.00
21644;BME280;10983;51.982;9.226;2023-04-26T02:54:22;99981.91;;;-0.44;100.00
21644;BME280;10983;51.982;9.226;2023-04-26T02:56:50;99975.84;;;-0.44;100.00
21644;BME280;10983;51.982;9.226;2023-04-26T02:59:17;99995.94;;;-0.45;100.00
21644;BME280;10983;51.982;9.226;2023-04-26T03:01:45;99992.50;;;-0.45;100.00
21644;BME280;10983;51.982;9.226;2023-04-26T03:04:12;99996.59;;;-0.51;100.00
21644;BME280;10983;51.982;9.226;2023-04-26T03:06:42;99993.63;;;-0.63;100.00
21644;BME280;10983;51.982;9.226;2023-04-26T03:09:10;100000.50;;;-0.62;100.00
21644;BME280;10983;51.982;9.226;2023-04-26T03:11:37;100004.88;;;-0.71;100.00
21644;BME280;10983;51.982;9.226;2023-04-26T03:14:04;100006.34;;;-0.60;100.00
21644;BME280;10983;51.982;9.226;2023-04-26T03:16:39;100011.09;;;-0.48;100.00
21644;BME280;10983;51.982;9.226;2023-04-26T03:19:07;99992.16;;;-0.50;100.00
21644;BME280;10983;51.982;9.226;2023-04-26T03:21:35;99992.16;;;-0.58;100.00
21644;BME280;10983;51.982;9.226;2023-04-26T03:24:05;99991.03;;;-0.63;100.00
21644;BME280;10983;51.982;9.226;2023-04-26T03:26:32;99996.06;;;-0.78;100.00
21644;BME280;10983;51.982;9.226;2023-04-26T03:29:01;99997.16;;;-0.96;100.00
21644;BME280;10983;51.982;9.226;2023-04-26T03:31:29;100010.25;;;-0.80;100.00
21644;BME280;10983;51.982;9.226;2023-04-26T03:33:56;100012.06;;;-0.73;100.00
21644;BME280;10983;51.982;9.226;2023-04-26T03:36:23;100014.66;;;-0.81;100.00
21644;BME280;10983;51.982;9.226;2023-04-26T03:38:53;100016.44;;;-0.81;100.00
21644;BME280;10983;51.982;9.226;2023-04-26T03:41:24;99997.28;;;-1.06;100.00
21644;BME280;10983;51.982;9.226;2023-04-26T03:43:51;100020.66;;;-0.88;100.00
21644;BME280;10983;51.982;9.226;2023-04-26T03:46:18;100021.97;;;-0.84;100.00
21644;BME280;10983;51.982;9.226;2023-04-26T03:48:46;100014.31;;;-0.86;100.00
21644;BME280;10983;51.982;9.226;2023-04-26T03:51:13;99971.25;;;-0.90;100.00
21644;BME280;10983;51.982;9.226;2023-04-26T03:53:41;99968.94;;;-1.01;100.00
21644;BME280;10983;51.982;9.226;2023-04-26T03:56:08;99980.84;;;-1.06;100.00
21644;BME280;10983;51.982;9.226;2023-04-26T03:58:37;99976.25;;;-1.12;100.00
21644;BME280;10983;51.982;9.226;2023-04-26T04:01:05;99978.09;;;-0.97;100.00
21644;BME280;10983;51.982;9.226;2023-04-26T04:03:34;99986.25;;;-0.92;100.00
21644;BME280;10983;51.982;9.226;2023-04-26T04:06:06;99986.38;;;-1.17;100.00
21644;BME280;10983;51.982;9.226;2023-04-26T04:08:34;99980.63;;;-1.20;100.00
21644;BME280;10983;51.982;9.226;2023-04-26T04:11:04;100003.13;;;-1.19;100.00
21644;BME280;10983;51.982;9.226;2023-04-26T04:13:31;100007.75;;;-0.98;100.00
21644;BME280;10983;51.982;9.226;2023-04-26T04:16:00;100018.50;;;-1.01;100.00
21644;BME280;10983;51.982;9.226;2023-04-26T04:18:27;100020.34;;;-0.85;100.00
21644;BME280;10983;51.982;9.226;2023-04-26T04:20:55;100015.97;;;-0.77;100.00
21644;BME280;10983;51.982;9.226;2023-04-26T04:23:22;100040.78;;;-0.65;100.00
21644;BME280;10983;51.982;9.226;2023-04-26T04:25:50;100050.59;;;-0.43;100.00
21644;BME280;10983;51.982;9.226;2023-04-26T04:28:17;100058.44;;;-0.43;100.00
21644;BME280;10983;51.982;9.226;2023-04-26T04:30:45;100059.72;;;-0.55;100.00
21644;BME280;10983;51.982;9.226;2023-04-26T04:33:14;100068.38;;;-0.47;100.00
21644;BME280;10983;51.982;9.226;2023-04-26T04:35:42;100068.22;;;-0.53;100.00
21644;BME280;10983;51.982;9.226;2023-04-26T04:38:10;100066.41;;;-0.53;100.00
21644;BME280;10983;51.982;9.226;2023-04-26T04:40:38;100074.09;;;-0.43;100.00
21644;BME280;10983;51.982;9.226;2023-04-26T04:43:06;100064.31;;;-0.33;100.00
21644;BME280;10983;51.982;9.226;2023-04-26T04:45:35;100083.75;;;-0.20;100.00
21644;BME280;10983;51.982;9.226;2023-04-26T04:48:04;100087.50;;;-0.14;100.00
21644;BME280;10983;51.982;9.226;2023-04-26T04:50:33;100087.03;;;-0.10;100.00
21644;BME280;10983;51.982;9.226;2023-04-26T04:53:00;100080.66;;;0.00;100.00
21644;BME280;10983;51.982;9.226;2023-04-26T04:55:28;100100.88;;;0.22;100.00
21644;BME280;10983;51.982;9.226;2023-04-26T04:57:55;100090.94;;;0.34;100.00
21644;BME280;10983;51.982;9.226;2023-04-26T05:00:23;100107.41;;;0.42;100.00
21644;BME280;10983;51.982;9.226;2023-04-26T05:02:50;100100.22;;;0.44;100.00
21644;BME280;10983;51.982;9.226;2023-04-26T05:05:18;100106.88;;;0.54;100.00
21644;BME280;10983;51.982;9.226;2023-04-26T05:07:47;100119.78;;;0.72;100.00
21644;BME280;10983;51.982;9.226;2023-04-26T05:10:14;100128.59;;;0.79;100.00
21644;BME280;10983;51.982;9.226;2023-04-26T05:12:42;100131.19;;;0.87;100.00
21644;BME280;10983;51.982;9.226;2023-04-26T05:15:09;100132.13;;;1.02;100.00
21644;BME280;10983;51.982;9.226;2023-04-26T05:17:37;100136.03;;;1.06;100.00
21644;BME280;10983;51.982;9.226;2023-04-26T05:20:06;100143.03;;;1.13;100.00
21644;BME280;10983;51.982;9.226;2023-04-26T05:22:34;100157.03;;;1.28;100.00
21644;BME280;10983;51.982;9.226;2023-04-26T05:25:04;100161.91;;;1.47;100.00
21644;BME280;10983;51.982;9.226;2023-04-26T05:27:33;100162.19;;;1.52;100.00
21644;BME280;10983;51.982;9.226;2023-04-26T05:30:02;100168.81;;;1.70;100.00
21644;BME280;10983;51.982;9.226;2023-04-26T05:32:29;100178.63;;;1.98;100.00
21644;BME280;10983;51.982;9.226;2023-04-26T05:34:57;100179.91;;;2.02;100.00
21644;BME280;10983;51.982;9.226;2023-04-26T05:37:24;100182.59;;;2.17;100.00
21644;BME280;10983;51.982;9.226;2023-04-26T05:39:52;100183.78;;;2.36;100.00
21644;BME280;10983;51.982;9.226;2023-04-26T05:42:21;100195.19;;;2.66;100.00
21644;BME280;10983;51.982;9.226;2023-04-26T05:44:48;100201.84;;;2.90;100.00
21644;BME280;10983;51.982;9.226;2023-04-26T05:47:15;100200.41;;;3.17;100.00
21644;BME280;10983;51.982;9.226;2023-04-26T05:49:43;100207.59;;;3.37;100.00
21644;BME280;10983;51.982;9.226;2023-04-26T05:52:10;100204.75;;;3.67;100.00
21644;BME280;10983;51.982;9.226;2023-04-26T05:54:38;100219.53;;;4.03;100.00
21644;BME280;10983;51.982;9.226;2023-04-26T05:57:05;100226.25;;;4.41;100.00
21644;BME280;10983;51.982;9.226;2023-04-26T05:59:36;100223.84;;;4.67;100.00
21644;BME280;10983;51.982;9.226;2023-04-26T06:02:03;100220.81;;;4.91;100.00
21644;BME280;10983;51.982;9.226;2023-04-26T06:04:31;100227.50;;;5.20;100.00
21644;BME280;10983;51.982;9.226;2023-04-26T06:06:58;100219.00;;;5.52;100.00
21644;BME280;10983;51.982;9.226;2023-04-26T06:09:26;100215.44;;;5.72;100.00
21644;BME280;10983;51.982;9.226;2023-04-26T06:11:54;100183.94;;;5.64;100.00
21644;BME280;10983;51.982;9.226;2023-04-26T06:14:22;100161.84;;;5.65;100.00
21644;BME280;10983;51.982;9.226;2023-04-26T06:16:56;100132.66;;;5.73;100.00
21644;BME280;10983;51.982;9.226;2023-04-26T06:19:23;100106.50;;;5.72;100.00
21644;BME280;10983;51.982;9.226;2023-04-26T06:21:51;100066.88;;;5.46;100.00
21644;BME280;10983;51.982;9.226;2023-04-26T06:24:20;100034.34;;;5.33;100.00
21644;BME280;10983;51.982;9.226;2023-04-26T06:26:51;99994.94;;;5.05;100.00
21644;BME280;10983;51.982;9.226;2023-04-26T06:29:21;99985.63;;;5.09;100.00
21644;BME280;10983;51.982;9.226;2023-04-26T06:31:51;99981.16;;;5.03;100.00
21644;BME280;10983;51.982;9.226;2023-04-26T06:34:21;99986.06;;;5.26;100.00
21644;BME280;10983;51.982;9.226;2023-04-26T06:36:50;99970.03;;;5.08;100.00
21644;BME280;10983;51.982;9.226;2023-04-26T06:39:19;100008.69;;;4.95;100.00
21644;BME280;10983;51.982;9.226;2023-04-26T06:41:51;100021.00;;;4.94;100.00
21644;BME280;10983;51.982;9.226;2023-04-26T06:44:18;100031.75;;;4.86;100.00
21644;BME280;10983;51.982;9.226;2023-04-26T06:46:47;100048.72;;;4.77;100.00
21644;BME280;10983;51.982;9.226;2023-04-26T06:49:15;100067.63;;;4.94;100.00
21644;BME280;10983;51.982;9.226;2023-04-26T06:51:45;100087.22;;;4.85;100.00
21644;BME280;10983;51.982;9.226;2023-04-26T06:54:13;100107.28;;;4.86;100.00
21644;BME280;10983;51.982;9.226;2023-04-26T06:56:40;100110.94;;;4.85;100.00
21644;BME280;10983;51.982;9.226;2023-04-26T06:59:08;100134.41;;;5.13;100.00
21644;BME280;10983;51.982;9.226;2023-04-26T07:01:35;100153.72;;;5.20;100.00
21644;BME280;10983;51.982;9.226;2023-04-26T07:04:04;100161.34;;;5.43;100.00
21644;BME280;10983;51.982;9.226;2023-04-26T07:06:33;100176.69;;;5.66;100.00
21644;BME280;10983;51.982;9.226;2023-04-26T07:09:02;100193.69;;;5.64;100.00
21644;BME280;10983;51.982;9.226;2023-04-26T07:11:30;100184.50;;;5.54;100.00
21644;BME280;10983;51.982;9.226;2023-04-26T07:14:01;100214.94;;;5.90;100.00
21644;BME280;10983;51.982;9.226;2023-04-26T07:16:28;100231.44;;;6.05;100.00
21644;BME280;10983;51.982;9.226;2023-04-26T07:18:56;100240.72;;;6.54;100.00
21644;BME280;10983;51.982;9.226;2023-04-26T07:21:24;100252.13;;;6.73;100.00
21644;BME280;10983;51.982;9.226;2023-04-26T07:23:53;100277.97;;;6.97;100.00
21644;BME280;10983;51.982;9.226;2023-04-26T07:26:22;100291.22;;;7.17;100.00
21644;BME280;10983;51.982;9.226;2023-04-26T07:28:50;100310.53;;;7.17;100.00
21644;BME280;10983;51.982;9.226;2023-04-26T07:31:18;100321.28;;;6.96;100.00
21644;BME280;10983;51.982;9.226;2023-04-26T07:33:45;100331.44;;;7.06;100.00
21644;BME280;10983;51.982;9.226;2023-04-26T07:36:13;100324.75;;;7.16;100.00
21644;BME280;10983;51.982;9.226;2023-04-26T07:38:41;100336.16;;;7.10;100.00
21644;BME280;10983;51.982;9.226;2023-04-26T07:41:08;100348.53;;;7.10;100.00
21644;BME280;10983;51.982;9.226;2023-04-26T07:43:40;100370.91;;;7.01;100.00
21644;BME280;10983;51.982;9.226;2023-04-26T07:46:11;100368.09;;;7.09;100.00
21644;BME280;10983;51.982;9.226;2023-04-26T07:48:40;100377.47;;;7.37;100.00
21644;BME280;10983;51.982;9.226;2023-04-26T07:51:09;100370.75;;;7.54;100.00
21644;BME280;10983;51.982;9.226;2023-04-26T07:53:37;100366.66;;;7.64;100.00
21644;BME280;10983;51.982;9.226;2023-04-26T07:56:05;100395.16;;;7.36;100.00
21644;BME280;10983;51.982;9.226;2023-04-26T07:58:34;100402.09;;;7.57;100.00
21644;BME280;10983;51.982;9.226;2023-04-26T08:01:03;100407.16;;;8.16;100.00
21644;BME280;10983;51.982;9.226;2023-04-26T08:03:31;100394.63;;;8.62;100.00
21644;BME280;10983;51.982;9.226;2023-04-26T08:05:59;100420.25;;;8.74;100.00
21644;BME280;10983;51.982;9.226;2023-04-26T08:08:27;100413.50;;;8.78;100.00
21644;BME280;10983;51.982;9.226;2023-04-26T08:10:56;100435.28;;;8.87;100.00
21644;BME280;10983;51.982;9.226;2023-04-26T08:13:24;100446.34;;;8.71;100.00
21644;BME280;10983;51.982;9.226;2023-04-26T08:15:54;100441.78;;;8.08;100.00
21644;BME280;10983;51.982;9.226;2023-04-26T08:18:24;100431.63;;;8.18;100.00
21644;BME280;10983;51.982;9.226;2023-04-26T08:20:51;100429.97;;;8.04;100.00
21644;BME280;10983;51.982;9.226;2023-04-26T08:23:20;100443.94;;;8.56;100.00
21644;BME280;10983;51.982;9.226;2023-04-26T08:25:48;100447.38;;;9.13;100.00
21644;BME280;10983;51.982;9.226;2023-04-26T08:28:15;100454.28;;;9.58;100.00
21644;BME280;10983;51.982;9.226;2023-04-26T08:30:43;100469.06;;;9.04;100.00
21644;BME280;10983;51.982;9.226;2023-04-26T08:33:11;100470.28;;;9.08;100.00
21644;BME280;10983;51.982;9.226;2023-04-26T08:35:41;100487.97;;;8.64;100.00
21644;BME280;10983;51.982;9.226;2023-04-26T08:38:08;100485.78;;;8.35;100.00
21644;BME280;10983;51.982;9.226;2023-04-26T08:40:37;100486.13;;;8.64;100.00
21644;BME280;10983;51.982;9.226;2023-04-26T08:43:07;100499.31;;;8.90;100.00
21644;BME280;10983;51.982;9.226;2023-04-26T08:45:39;100488.94;;;8.82;100.00
21644;BME280;10983;51.982;9.226;2023-04-26T08:48:10;100498.34;;;9.59;100.00
21644;BME280;10983;51.982;9.226;2023-04-26T08:50:43;100496.91;;;9.94;100.00
21644;BME280;10983;51.982;9.226;2023-04-26T08:53:15;100513.66;;;10.43;100.00
21644;BME280;10983;51.982;9.226;2023-04-26T08:55:48;100519.38;;;10.46;100.00
21644;BME280;10983;51.982;9.226;2023-04-26T08:58:16;100502.13;;;10.31;100.00
21644;BME280;10983;51.982;9.226;2023-04-26T09:00:44;100534.19;;;9.44;100.00
21644;BME280;10983;51.982;9.226;2023-04-26T09:03:13;100531.25;;;8.45;100.00
21644;BME280;10983;51.982;9.226;2023-04-26T09:05:45;100526.72;;;8.52;100.00
21644;BME280;10983;51.982;9.226;2023-04-26T09:08:15;100517.34;;;8.49;100.00
21644;BME280;10983;51.982;9.226;2023-04-26T09:10:44;100522.63;;;8.69;100.00
21644;BME280;10983;51.982;9.226;2023-04-26T09:13:13;100498.72;;;8.82;100.00
21644;BME280;10983;51.982;9.226;2023-04-26T09:15:42;100520.66;;;9.14;100.00
21644;BME280;10983;51.982;9.226;2023-04-26T09:18:16;100521.13;;;8.98;100.00
21644;BME280;10983;51.982;9.226;2023-04-26T09:21:01;100518.03;;;9.01;100.00
21644;BME280;10983;51.982;9.226;2023-04-26T09:23:31;100524.47;;;9.31;100.00
21644;BME280;10983;51.982;9.226;2023-04-26T09:26:14;100508.75;;;9.30;100.00
21644;BME280;10983;51.982;9.226;2023-04-26T09:28:44;100531.09;;;9.84;100.00
21644;BME280;10983;51.982;9.226;2023-04-26T09:31:35;100531.25;;;9.58;100.00
21644;BME280;10983;51.982;9.226;2023-04-26T09:34:05;100536.06;;;9.74;100.00
21644;BME280;10983;51.982;9.226;2023-04-26T09:36:50;100541.78;;;9.34;100.00
21644;BME280;10983;51.982;9.226;2023-04-26T09:39:32;100540.63;;;9.23;100.00
21644;BME280;10983;51.982;9.226;2023-04-26T09:42:02;100535.69;;;9.27;100.00
21644;BME280;10983;51.982;9.226;2023-04-26T09:44:31;100533.00;;;10.07;100.00
21644;BME280;10983;51.982;9.226;2023-04-26T09:47:00;100543.41;;;10.33;100.00
21644;BME280;10983;51.982;9.226;2023-04-26T09:49:30;100540.13;;;10.38;100.00
21644;BME280;10983;51.982;9.226;2023-04-26T09:52:05;100525.25;;;10.72;100.00
21644;BME280;10983;51.982;9.226;2023-04-26T09:54:42;100556.44;;;10.41;100.00
21644;BME280;10983;51.982;9.226;2023-04-26T09:57:11;100548.25;;;10.18;100.00
21644;BME280;10983;51.982;9.226;2023-04-26T09:59:45;100545.13;;;9.91;100.00
21644;BME280;10983;51.982;9.226;2023-04-26T10:02:15;100552.34;;;10.39;100.00
21644;BME280;10983;51.982;9.226;2023-04-26T10:04:44;100560.97;;;11.01;100.00
21644;BME280;10983;51.982;9.226;2023-04-26T10:07:16;100563.97;;;10.86;100.00
21644;BME280;10983;51.982;9.226;2023-04-26T10:09:44;100557.25;;;10.84;100.00
21644;BME280;10983;51.982;9.226;2023-04-26T10:12:17;100537.41;;;9.83;100.00
21644;BME280;10983;51.982;9.226;2023-04-26T10:14:45;100537.75;;;9.25;100.00
21644;BME280;10983;51.982;9.226;2023-04-26T10:17:13;100563.28;;;9.26;100.00
21644;BME280;10983;51.982;9.226;2023-04-26T10:19:43;100553.66;;;9.31;100.00
21644;BME280;10983;51.982;9.226;2023-04-26T10:22:18;100559.34;;;9.28;100.00
21644;BME280;10983;51.982;9.226;2023-04-26T10:24:48;100560.69;;;8.93;100.00
21644;BME280;10983;51.982;9.226;2023-04-26T10:27:46;100555.59;;;8.98;100.00
21644;BME280;10983;51.982;9.226;2023-04-26T10:30:14;100539.38;;;9.26;100.00
21644;BME280;10983;51.982;9.226;2023-04-26T10:33:10;100552.66;;;10.00;100.00
21644;BME280;10983;51.982;9.226;2023-04-26T10:36:01;100556.91;;;10.80;100.00
21644;BME280;10983;51.982;9.226;2023-04-26T10:38:31;100559.97;;;10.11;100.00
21644;BME280;10983;51.982;9.226;2023-04-26T10:41:27;100552.25;;;10.27;100.00
21644;BME280;10983;51.982;9.226;2023-04-26T10:43:57;100545.56;;;10.67;100.00
21644;BME280;10983;51.982;9.226;2023-04-26T10:46:40;100538.19;;;10.87;100.00
21644;BME280;10983;51.982;9.226;2023-04-26T10:49:18;100531.50;;;11.49;100.00
21644;BME280;10983;51.982;9.226;2023-04-26T10:52:13;100535.81;;;12.32;100.00
21644;BME280;10983;51.982;9.226;2023-04-26T10:54:53;100547.16;;;13.18;100.00
21644;BME280;10983;51.982;9.226;2023-04-26T10:57:23;100544.50;;;13.18;100.00
21644;BME280;10983;51.982;9.226;2023-04-26T11:00:24;100542.53;;;13.14;100.00
21644;BME280;10983;51.982;9.226;2023-04-26T11:02:58;100543.47;;;12.62;100.00
21644;BME280;10983;51.982;9.226;2023-04-26T11:05:37;100546.63;;;11.96;100.00
21644;BME280;10983;51.982;9.226;2023-04-26T11:08:14;100525.16;;;12.20;100.00
21644;BME280;10983;51.982;9.226;2023-04-26T11:10:45;100545.13;;;12.00;100.00
21644;BME280;10983;51.982;9.226;2023-04-26T11:13:17;100542.13;;;11.96;100.00
21644;BME280;10983;51.982;9.226;2023-04-26T11:15:52;100541.59;;;11.77;100.00
21644;BME280;10983;51.982;9.226;2023-04-26T11:18:20;100552.66;;;11.26;100.00
21644;BME280;10983;51.982;9.226;2023-04-26T11:20:50;100544.47;;;11.10;100.00
21644;BME280;10983;51.982;9.226;2023-04-26T11:23:18;100539.88;;;11.53;100.00
21644;BME280;10983;51.982;9.226;2023-04-26T11:25:47;100542.44;;;12.40;100.00
21644;BME280;10983;51.982;9.226;2023-04-26T11:28:17;100536.72;;;11.74;100.00
21644;BME280;10983;51.982;9.226;2023-04-26T11:30:45;100550.22;;;10.89;100.00
21644;BME280;10983;51.982;9.226;2023-04-26T11:33:16;100551.50;;;10.45;100.00
21644;BME280;10983;51.982;9.226;2023-04-26T11:35:45;100549.81;;;10.26;100.00
21644;BME280;10983;51.982;9.226;2023-04-26T11:38:13;100464.81;;;9.34;100.00
21644;BME280;10983;51.982;9.226;2023-04-26T11:40:41;100555.97;;;9.89;100.00
21644;BME280;10983;51.982;9.226;2023-04-26T11:43:13;100553.53;;;9.57;100.00
21644;BME280;10983;51.982;9.226;2023-04-26T11:45:45;100558.38;;;9.66;100.00
21644;BME280;10983;51.982;9.226;2023-04-26T11:48:23;100520.69;;;9.51;100.00
21644;BME280;10983;51.982;9.226;2023-04-26T11:50:51;100577.81;;;9.10;100.00
21644;BME280;10983;51.982;9.226;2023-04-26T11:53:18;100564.75;;;9.02;100.00
21644;BME280;10983;51.982;9.226;2023-04-26T11:55:47;100560.66;;;9.06;100.00
21644;BME280;10983;51.982;9.226;2023-04-26T11:58:17;100562.22;;;9.27;100.00
21644;BME280;10983;51.982;9.226;2023-04-26T12:00:54;100577.25;;;9.46;100.00
21644;BME280;10983;51.982;9.226;2023-04-26T12:03:31;100555.97;;;9.52;100.00
21644;BME280;10983;51.982;9.226;2023-04-26T12:06:00;100565.72;;;10.02;100.00
21644;BME280;10983;51.982;9.226;2023-04-26T12:08:29;100569.75;;;10.83;100.00
21644;BME280;10983;51.982;9.226;2023-04-26T12:11:00;100573.66;;;11.34;100.00
21644;BME280;10983;51.982;9.226;2023-04-26T12:13:29;100570.13;;;11.87;100.00
21644;BME280;10983;51.982;9.226;2023-04-26T12:15:58;100574.81;;;11.27;100.00
21644;BME280;10983;51.982;9.226;2023-04-26T12:18:29;100571.66;;;11.48;100.00
21644;BME280;10983;51.982;9.226;2023-04-26T12:20:58;100572.66;;;11.18;100.00
21644;BME280;10983;51.982;9.226;2023-04-26T12:23:35;100570.78;;;11.00;100.00
21644;BME280;10983;51.982;9.226;2023-04-26T12:26:06;100576.81;;;10.71;100.00
21644;BME280;10983;51.982;9.226;2023-04-26T12:28:45;100566.97;;;10.72;100.00
21644;BME280;10983;51.982;9.226;2023-04-26T12:31:15;100586.22;;;10.74;100.00
21644;BME280;10983;51.982;9.226;2023-04-26T12:33:42;100580.72;;;10.69;100.00
21644;BME280;10983;51.982;9.226;2023-04-26T12:36:12;100585.75;;;11.19;100.00
21644;BME280;10983;51.982;9.226;2023-04-26T12:38:39;100568.25;;;12.17;100.00
21644;BME280;10983;51.982;9.226;2023-04-26T12:41:07;100552.97;;;15.51;100.00
21644;BME280;10983;51.982;9.226;2023-04-26T12:43:34;100551.00;;;17.29;100.00
21644;BME280;10983;51.982;9.226;2023-04-26T12:46:03;100554.34;;;16.06;100.00
21644;BME280;10983;51.982;9.226;2023-04-26T12:48:31;100558.22;;;14.05;100.00
21644;BME280;10983;51.982;9.226;2023-04-26T12:50:59;100567.63;;;13.13;100.00
21644;BME280;10983;51.982;9.226;2023-04-26T12:53:28;100571.13;;;12.04;100.00
21644;BME280;10983;51.982;9.226;2023-04-26T12:55:56;100570.97;;;11.23;100.00
21644;BME280;10983;51.982;9.226;2023-04-26T12:58:24;100565.38;;;10.71;100.00
21644;BME280;10983;51.982;9.226;2023-04-26T13:00:51;100567.88;;;10.84;100.00